Doyleville, Colorado
Current Conditions -  °F | °C
As of 9:35 AM on Friday 31 Oct 2014 (Local Time) from KGUC Reporting Station
Clear Clear  
Wind Chill: 27°   Ceiling: Unl
Heat Index: 27°   Visibility: 10mi
Dew Point: 12°   Wind: 0mph
Humidity: 55%   Direction: NA
Pressure: 30.44"   Gusts: NA
Location:  38.5539°N, 107.09°W
Report Text: KGUC 311535Z AUTO 00000KT 10SM CLR M03/M11 A3044 RMK AO1
Loading
Personal Weather Stations






























Interactive Weather Map
Tropical Storm Tracking
New forecast layout! Learn more

10-Day Weather Forecast

Advertisements
Track Severe Weather on mobile